.
Local / Fort Wayne - NE Ind.

U N D E R   C O N S T R U C T I O N

Local Weather
Fort Wayne – NE Indiana

Northern Indiana (IWX) Radar

Latest IWX NEXRAD
Base Reflectivity



Latest IWX NEXRAD
Base Velocity

Indiana-Ohio Visible Satellite

For infrared and water vapor imagery, see Great Lakes - Midwest.

Current Conditions

Recent report from the Fort Wayne International Airport

Oct 18, 2017 - 02:54 AM EDT / 2017.10.18 0654 UTC


The skies are clear. The temperature is 43.0 F (6.1 C) and the dew point is 37.0 F (2.8 C), giving a relative humidity of 79%. The barometric pressure is 30.24 in. Hg (1024 hPa). The wind is from the S (190 degrees) at 6 MPH (5 KT), and the visibility is 10 mile(s).

KFWA 180654Z 19005KT 10SM CLR 06/03 A3024 RMK AO2 SLP240 T00610028

Local Weather — Contents

Local Weather — Links

CoCoRaHS
IN-AL-39
A2 Web Hosting
Creative Commons License
GoDaddy
Look for:

loaded 2017-10-18 03:26:56 • last modified 2017-02-11 13:27:36
Privacy PolicyDisclaimer
• wx.awcolley.com is powered by PmWiki v.2002016 •
• all content (unless otherwise noted) © 2017 A W Colley